Time;durP1;ratioP1;P1;durP2;ratioP2;P2;SDS_P1;SDS_P2;PMS_P1;PMS_P2;Temp;Humidity;BMP_temperature;BMP_pressure;BME280_temperature;BME280_humidity;BME280_pressure;Samples;Min_cycle;Max_cycle;Signal;HPM_P1;HPM_P2
2022/03/17 00:00:18;;;;;;;13.63;7.53;;;9.60;73.50;;;;;;5047332;28;20048;-69
2022/03/17 00:02:45;;;;;;;15.18;7.25;;;9.60;73.50;;;;;;5051667;28;20048;-70
2022/03/17 00:05:14;;;;;;;14.52;7.75;;;9.60;73.50;;;;;;5052285;28;20068;-69
2022/03/17 00:07:43;;;;;;;13.45;7.30;;;9.60;73.50;;;;;;5045565;28;21899;-69
2022/03/17 00:10:13;;;;;;;13.70;6.97;;;9.60;73.40;;;;;;5049654;28;20049;-70
2022/03/17 00:12:40;;;;;;;18.70;8.43;;;9.60;73.50;;;;;;5060267;28;20048;-70
2022/03/17 00:15:08;;;;;;;18.85;8.70;;;9.60;73.50;;;;;;5056269;28;20040;-69
2022/03/17 00:17:35;;;;;;;16.58;8.55;;;9.70;73.40;;;;;;5066391;28;20059;-71
2022/03/17 00:20:06;;;;;;;16.27;8.90;;;9.70;73.50;;;;;;5062796;28;20045;-70
2022/03/17 00:22:35;;;;;;;20.52;8.68;;;9.60;73.40;;;;;;5065466;28;20120;-69
2022/03/17 00:25:02;;;;;;;14.70;8.25;;;9.60;73.30;;;;;;5059038;28;20037;-70
2022/03/17 00:27:29;;;;;;;16.45;8.68;;;9.60;73.50;;;;;;5058569;28;20124;-69
2022/03/17 00:29:56;;;;;;;14.57;8.10;;;9.60;73.50;;;;;;5060132;28;20045;-69
2022/03/17 00:32:24;;;;;;;14.77;7.30;;;9.60;73.60;;;;;;5046692;28;20053;-69
2022/03/17 00:43:05;;;;;;;15.95;8.35;;;9.50;73.60;;;;;;6107341;22;20126;31
2022/03/17 00:45:33;;;;;;;16.50;8.48;;;9.50;73.50;;;;;;5051769;22;21284;-69
2022/03/17 00:48:00;;;;;;;16.17;7.78;;;9.60;73.50;;;;;;5050640;28;20044;-70
2022/03/17 00:50:33;;;;;;;15.80;9.07;;;9.50;73.50;;;;;;5067083;28;20090;-69
2022/03/17 00:53:00;;;;;;;19.88;10.18;;;9.50;73.50;;;;;;5069739;28;20401;-71
2022/03/17 00:55:28;;;;;;;15.88;8.57;;;9.50;73.50;;;;;;5070265;28;20124;-69
2022/03/17 00:57:55;;;;;;;18.52;9.85;;;9.60;73.60;;;;;;5064753;28;20047;-71
2022/03/17 01:00:22;;;;;;;17.38;9.88;;;9.50;73.50;;;;;;5061790;28;20499;-69
2022/03/17 01:02:57;;;;;;;17.02;8.55;;;9.50;73.60;;;;;;5053240;28;20401;-69
2022/03/17 01:05:25;;;;;;;17.13;8.68;;;9.50;73.70;;;;;;5055812;28;20444;-70
2022/03/17 01:07:54;;;;;;;18.25;9.15;;;9.50;73.60;;;;;;5053124;28;20047;-69
2022/03/17 01:10:22;;;;;;;20.50;10.05;;;9.50;73.60;;;;;;5057264;28;20067;-69
2022/03/17 01:12:49;;;;;;;19.90;8.93;;;9.50;73.60;;;;;;5064416;28;20047;-71
2022/03/17 01:15:18;;;;;;;17.27;9.10;;;9.50;73.60;;;;;;5064298;28;20487;-70
2022/03/17 01:17:46;;;;;;;18.02;9.57;;;9.50;73.60;;;;;;5062399;28;20064;-70
2022/03/17 01:20:15;;;;;;;22.25;10.13;;;9.40;73.60;;;;;;5065285;28;20040;-68
2022/03/17 01:22:42;;;;;;;18.55;9.40;;;9.50;73.60;;;;;;5071663;28;20071;-69
2022/03/17 01:25:10;;;;;;;19.67;9.73;;;9.50;73.60;;;;;;5071496;28;20094;-70
2022/03/17 01:27:36;;;;;;;20.48;9.88;;;9.50;73.60;;;;;;5076826;28;20051;-69
2022/03/17 01:30:07;;;;;;;23.70;10.57;;;9.40;73.50;;;;;;5062294;28;20040;-69
2022/03/17 01:32:34;;;;;;;18.33;9.43;;;9.50;73.50;;;;;;5075432;28;20077;-69
2022/03/17 01:35:01;;;;;;;16.67;9.40;;;9.50;73.60;;;;;;5074417;28;20037;-69
2022/03/17 01:37:30;;;;;;;17.80;10.23;;;9.50;73.60;;;;;;5074008;28;20053;-70
2022/03/17 01:39:57;;;;;;;17.05;9.95;;;9.40;73.70;;;;;;5069270;28;20032;-69
2022/03/17 01:42:24;;;;;;;19.15;10.05;;;9.40;73.70;;;;;;5073160;28;20562;-69
2022/03/17 01:44:51;;;;;;;15.82;9.77;;;9.40;73.70;;;;;;5062274;28;20163;-70
2022/03/17 01:47:31;;;;;;;19.95;9.73;;;9.40;73.70;;;;;;5055394;28;20155;-70
2022/03/17 01:50:02;;;;;;;18.20;8.85;;;9.40;73.60;;;;;;5071445;28;20505;-69
2022/03/17 01:52:31;;;;;;;;;;;9.40;73.70;;;;;;5063772;28;20415;-70
2022/03/17 01:54:58;;;;;;;15.55;8.00;;;9.40;73.70;;;;;;5062158;28;20118;-68
2022/03/17 01:57:26;;;;;;;16.20;9.30;;;9.40;73.70;;;;;;5070426;28;20115;-70
2022/03/17 01:59:54;;;;;;;18.20;9.52;;;9.40;73.70;;;;;;5053372;28;20787;-70
2022/03/17 02:02:21;;;;;;;20.00;10.52;;;9.40;73.60;;;;;;5043276;28;20044;-70
2022/03/17 02:04:48;;;;;;;18.08;10.07;;;9.40;73.40;;;;;;5072131;28;20123;-68
2022/03/17 02:07:16;;;;;;;20.10;9.82;;;9.40;73.50;;;;;;5074307;28;20048;-69
2022/03/17 02:09:45;;;;;;;18.23;9.70;;;9.40;73.60;;;;;;5065008;28;20037;-69
2022/03/17 02:15:00;;;;;;;17.83;9.85;;;9.40;73.70;;;;;;5064614;28;20044;-70
2022/03/17 02:17:30;;;;;;;19.73;10.57;;;9.40;73.80;;;;;;5070777;28;20040;-69
2022/03/17 02:19:58;;;;;;;21.02;10.05;;;9.40;73.70;;;;;;5069229;28;20048;-70
2022/03/17 02:22:26;;;;;;;23.38;10.90;;;9.40;73.70;;;;;;5070559;28;20450;-68
2022/03/17 02:27:42;;;;;;;19.15;9.52;;;9.40;73.60;;;;;;5071843;28;20056;-69
2022/03/17 02:30:10;;;;;;;;;;;9.40;73.60;;;;;;5068895;28;20055;-69
2022/03/17 02:32:38;;;;;;;16.92;9.60;;;9.40;73.50;;;;;;5071460;28;19932;-70
2022/03/17 02:35:07;;;;;;;16.50;9.98;;;9.40;73.40;;;;;;5067251;28;20556;-70
2022/03/17 02:37:35;;;;;;;19.20;10.23;;;9.40;73.40;;;;;;5068809;28;20082;-69
2022/03/17 02:40:06;;;;;;;18.83;10.60;;;9.40;73.30;;;;;;5081313;28;20140;-70
2022/03/17 02:42:33;;;;;;;19.08;10.00;;;9.40;73.40;;;;;;5082239;28;20044;-69
2022/03/17 02:45:02;;;;;;;21.05;10.43;;;9.40;73.20;;;;;;5075150;28;20450;-70
2022/03/17 02:47:29;;;;;;;17.23;9.68;;;9.40;73.20;;;;;;5062459;28;20485;-69
2022/03/17 02:49:57;;;;;;;18.67;9.93;;;9.40;73.30;;;;;;5066014;28;20039;-71
2022/03/17 02:52:24;;;;;;;17.95;9.93;;;9.40;73.40;;;;;;5068991;28;20054;-71
2022/03/17 02:54:52;;;;;;;21.80;10.93;;;9.40;73.30;;;;;;5071755;28;21289;-70
2022/03/17 02:57:20;;;;;;;19.52;10.40;;;9.40;73.10;;;;;;5070316;28;20504;-68
2022/03/17 02:59:48;;;;;;;20.70;10.80;;;9.40;73.00;;;;;;5080734;28;20059;-69
2022/03/17 03:02:15;;;;;;;20.10;10.23;;;9.40;72.90;;;;;;5065978;28;20622;-70
2022/03/17 03:04:43;;;;;;;20.88;10.80;;;9.40;73.00;;;;;;5072942;28;20115;-70
2022/03/17 03:07:10;;;;;;;25.05;10.85;;;9.40;72.90;;;;;;5064849;28;20033;-70
2022/03/17 03:09:37;;;;;;;22.83;11.18;;;9.40;72.80;;;;;;5066847;28;20040;-70
2022/03/17 03:12:05;;;;;;;20.23;10.57;;;9.40;72.90;;;;;;5063469;28;20040;-68
2022/03/17 03:14:33;;;;;;;17.45;9.80;;;9.40;72.90;;;;;;5063915;28;20063;-70
2022/03/17 03:17:00;;;;;;;20.75;11.02;;;9.30;72.90;;;;;;5071385;28;20044;-70
2022/03/17 03:19:28;;;;;;;20.08;11.32;;;9.30;72.90;;;;;;5067620;28;20036;-70
2022/03/17 03:21:55;;;;;;;19.23;10.25;;;9.30;72.90;;;;;;5075103;28;20048;-69
2022/03/17 03:24:22;;;;;;;18.25;10.25;;;9.30;72.90;;;;;;5059199;28;20049;-70
2022/03/17 03:26:49;;;;;;;20.60;10.63;;;9.30;72.90;;;;;;5063369;28;20040;-72
2022/03/17 03:29:22;;;;;;;20.48;11.00;;;9.30;73.00;;;;;;5068051;28;20059;-70
2022/03/17 03:31:51;;;;;;;21.58;10.95;;;9.30;72.80;;;;;;5058873;28;20033;-70
2022/03/17 03:34:19;;;;;;;18.83;11.25;;;9.30;72.90;;;;;;5059668;28;20076;-70
2022/03/17 03:39:31;;;;;;;20.27;10.85;;;9.30;72.90;;;;;;5066956;28;20044;-68
2022/03/17 03:41:58;;;;;;;23.20;11.32;;;9.30;72.80;;;;;;5065884;28;20051;-69
2022/03/17 03:44:25;;;;;;;21.23;11.35;;;9.30;72.60;;;;;;5064966;28;20044;-69
2022/03/17 03:46:54;;;;;;;21.10;10.32;;;9.30;72.60;;;;;;5048640;28;20057;-70
2022/03/17 03:49:21;;;;;;;20.75;11.60;;;9.30;72.60;;;;;;5044089;28;20037;-68
2022/03/17 03:51:48;;;;;;;20.30;10.73;;;9.30;72.60;;;;;;5045357;28;20147;-69
2022/03/17 03:54:17;;;;;;;20.58;11.07;;;9.20;72.70;;;;;;5046217;28;20041;-68
2022/03/17 03:56:45;;;;;;;19.60;10.68;;;9.30;72.60;;;;;;5044680;28;20045;-69
2022/03/17 03:59:16;;;;;;;21.13;10.32;;;9.20;72.50;;;;;;5045687;28;20102;-70
2022/03/17 04:01:43;;;;;;;22.08;11.63;;;9.30;72.50;;;;;;5044512;28;20076;-68
2022/03/17 04:04:17;;;;;;;18.17;11.05;;;9.30;72.40;;;;;;5046665;28;20051;-69
2022/03/17 04:06:46;;;;;;;18.30;9.93;;;9.30;72.40;;;;;;5049665;28;20048;-69
2022/03/17 04:09:13;;;;;;;22.60;12.00;;;9.30;72.40;;;;;;5047246;28;20040;-70
2022/03/17 04:11:41;;;;;;;20.77;11.65;;;9.30;72.40;;;;;;5056506;28;20048;-70
2022/03/17 04:14:08;;;;;;;20.60;11.45;;;9.30;72.40;;;;;;5056463;28;20040;-69
2022/03/17 04:16:35;;;;;;;18.88;9.77;;;9.30;72.50;;;;;;5060805;28;20386;-71
2022/03/17 04:19:02;;;;;;;17.98;10.38;;;9.30;72.40;;;;;;5058864;28;20497;-69
2022/03/17 04:21:31;;;;;;;23.15;12.10;;;9.30;72.50;;;;;;5058460;28;20033;-69
2022/03/17 04:23:59;;;;;;;20.98;11.20;;;9.30;72.40;;;;;;5050037;28;20119;-69
2022/03/17 04:26:27;;;;;;;18.52;10.02;;;9.30;72.40;;;;;;5050590;28;20048;-69
2022/03/17 04:28:54;;;;;;;22.15;11.73;;;9.30;72.40;;;;;;5056040;28;20120;-70
2022/03/17 04:31:21;;;;;;;21.83;10.75;;;9.30;72.40;;;;;;5038540;28;20055;-71
2022/03/17 04:33:48;;;;;;;20.08;11.20;;;9.30;72.50;;;;;;5051244;28;20044;-70
2022/03/17 04:36:16;;;;;;;20.85;11.93;;;9.30;72.50;;;;;;5054952;28;20080;-70
2022/03/17 04:38:45;;;;;;;21.20;11.60;;;9.30;72.40;;;;;;5049560;28;20067;-71
2022/03/17 04:41:13;;;;;;;21.30;11.13;;;9.30;72.40;;;;;;5040816;28;20052;-71
2022/03/17 04:43:40;;;;;;;22.70;12.05;;;9.30;72.40;;;;;;5055279;28;20049;-69
2022/03/17 04:46:08;;;;;;;18.88;10.98;;;9.30;72.30;;;;;;5036692;28;20048;-69
2022/03/17 04:48:36;;;;;;;22.15;11.80;;;9.30;72.40;;;;;;5051780;28;20094;-68
2022/03/17 04:51:03;;;;;;;18.08;10.02;;;9.30;72.10;;;;;;5036558;28;20053;-69
2022/03/17 04:53:32;;;;;;;25.10;11.57;;;9.30;72.00;;;;;;5056408;28;20055;-68
2022/03/17 04:56:02;;;;;;;19.75;11.15;;;9.30;72.10;;;;;;5053262;28;20037;-69
2022/03/17 04:58:30;;;;;;;19.55;11.30;;;9.30;72.20;;;;;;5043015;28;20125;-70
2022/03/17 05:00:58;;;;;;;20.75;11.15;;;9.30;72.30;;;;;;5039369;28;20036;-69
2022/03/17 05:03:26;;;;;;;19.27;10.15;;;9.30;72.30;;;;;;5033060;28;20151;-69
2022/03/17 05:05:53;;;;;;;24.25;11.85;;;9.30;72.30;;;;;;5046166;28;20055;-69
2022/03/17 05:08:21;;;;;;;21.45;11.02;;;9.30;72.20;;;;;;5044889;28;20147;-71
2022/03/17 05:10:48;;;;;;;23.80;13.07;;;9.30;72.20;;;;;;5055547;28;20036;-69
2022/03/17 05:13:17;;;;;;;25.40;11.60;;;9.30;72.30;;;;;;5053358;28;20033;-70
2022/03/17 05:15:45;;;;;;;23.10;11.77;;;9.30;72.10;;;;;;5055665;28;20041;-68
2022/03/17 05:18:12;;;;;;;22.77;11.25;;;9.30;71.90;;;;;;5054922;28;20123;-70
2022/03/17 05:20:40;;;;;;;20.90;10.90;;;9.30;72.10;;;;;;5058856;28;20051;-69
2022/03/17 05:23:09;;;;;;;24.30;12.35;;;9.30;72.30;;;;;;5055445;28;20037;-69
2022/03/17 05:25:38;;;;;;;21.42;11.73;;;9.30;72.20;;;;;;5057856;28;20040;-69
2022/03/17 05:28:05;;;;;;;24.83;11.30;;;9.30;72.10;;;;;;5057155;28;20041;-69
2022/03/17 05:30:34;;;;;;;21.77;11.45;;;9.30;72.10;;;;;;5058652;28;20040;-69
2022/03/17 05:33:02;;;;;;;25.95;12.25;;;9.30;72.20;;;;;;5056983;28;20045;-69
2022/03/17 05:35:29;;;;;;;23.20;11.43;;;9.30;72.20;;;;;;5054508;28;20057;-69
2022/03/17 05:37:57;;;;;;;19.45;11.95;;;9.30;72.10;;;;;;5057612;28;20048;-70
2022/03/17 05:40:24;;;;;;;22.70;12.32;;;9.30;72.10;;;;;;5051839;28;20065;-69
2022/03/17 05:42:54;;;;;;;24.00;12.68;;;9.30;72.10;;;;;;5053442;28;20098;-70
2022/03/17 05:45:22;;;;;;;21.45;12.07;;;9.30;72.10;;;;;;5055562;28;20058;-69
2022/03/17 05:47:51;;;;;;;21.30;12.23;;;9.30;72.10;;;;;;5068674;28;20040;-68
2022/03/17 05:50:22;;;;;;;21.00;11.98;;;9.30;72.20;;;;;;5071116;28;20072;-69
2022/03/17 05:52:49;;;;;;;22.75;11.77;;;9.30;72.20;;;;;;5073144;28;20037;-68
2022/03/17 05:55:19;;;;;;;21.95;11.50;;;9.30;72.10;;;;;;5068802;28;20044;-70
2022/03/17 05:57:48;;;;;;;20.27;11.98;;;9.30;72.20;;;;;;5069487;28;20095;-71
2022/03/17 06:00:17;;;;;;;23.63;12.15;;;9.30;72.10;;;;;;5073021;28;20054;-69
2022/03/17 06:02:45;;;;;;;20.40;11.50;;;9.30;72.20;;;;;;5066015;28;20064;-70
2022/03/17 06:05:14;;;;;;;21.33;12.30;;;9.30;72.30;;;;;;5070036;28;20044;-70
2022/03/17 06:07:42;;;;;;;20.05;10.90;;;9.30;72.40;;;;;;5062661;28;20392;-70
2022/03/17 06:10:12;;;;;;;25.00;11.95;;;9.20;72.40;;;;;;5068490;28;20186;-69
2022/03/17 06:12:39;;;;;;;23.05;12.00;;;9.30;72.40;;;;;;5076927;28;20044;-70
2022/03/17 06:15:23;;;;;;;22.58;11.82;;;9.30;72.40;;;;;;5059748;28;20037;-70
2022/03/17 06:17:58;;;;;;;18.55;10.00;;;9.30;72.40;;;;;;5046900;28;20342;-70
2022/03/17 06:20:28;;;;;;;20.50;11.43;;;9.30;72.50;;;;;;5069219;28;20044;-70
2022/03/17 06:22:58;;;;;;;22.65;12.73;;;9.30;72.50;;;;;;5057162;28;20045;-70
2022/03/17 06:25:26;;;;;;;19.40;11.45;;;9.30;72.30;;;;;;5055906;28;20043;-70
2022/03/17 06:27:54;;;;;;;22.55;12.38;;;9.30;72.30;;;;;;5061953;28;20162;-68
2022/03/17 06:30:22;;;;;;;21.17;11.02;;;9.30;72.30;;;;;;5066477;28;20131;-70
2022/03/17 06:32:50;;;;;;;21.48;11.20;;;9.30;72.20;;;;;;5065918;28;20036;-69
2022/03/17 06:35:20;;;;;;;23.73;12.45;;;9.30;72.00;;;;;;5063037;28;20097;-69
2022/03/17 06:37:51;;;;;;;23.02;11.95;;;9.40;72.10;;;;;;5062771;28;20037;-69
2022/03/17 06:40:18;;;;;;;20.95;11.85;;;9.40;72.20;;;;;;5059944;28;20044;-69
2022/03/17 06:42:47;;;;;;;21.98;11.52;;;9.30;72.10;;;;;;5061775;28;20041;-69
2022/03/17 06:45:14;;;;;;;22.50;12.20;;;9.40;72.10;;;;;;5060310;28;20134;-69
2022/03/17 06:47:41;;;;;;;22.48;11.63;;;9.40;72.20;;;;;;5062494;28;20102;-69
2022/03/17 06:50:10;;;;;;;22.10;11.82;;;9.40;72.10;;;;;;5061038;28;20040;-70
2022/03/17 06:52:37;;;;;;;23.40;11.73;;;9.40;72.00;;;;;;5068412;28;20123;-70
2022/03/17 06:55:07;;;;;;;21.98;11.75;;;9.40;72.10;;;;;;5064714;28;20044;-70
2022/03/17 06:57:34;;;;;;;20.00;10.88;;;9.40;72.10;;;;;;5058808;28;20124;-70
2022/03/17 07:00:02;;;;;;;22.80;11.35;;;9.50;72.30;;;;;;5064821;28;20121;-69
2022/03/17 07:02:29;;;;;;;24.15;12.25;;;9.40;72.30;;;;;;5062822;28;20053;-71
2022/03/17 07:04:56;;;;;;;18.77;12.20;;;9.50;72.30;;;;;;5061040;28;20053;-71
2022/03/17 07:07:24;;;;;;;26.48;12.43;;;9.50;72.20;;;;;;5072896;28;20047;-69
2022/03/17 07:09:51;;;;;;;21.25;12.27;;;9.40;72.10;;;;;;5069502;28;20040;-69
2022/03/17 07:12:19;;;;;;;20.33;11.43;;;9.50;72.10;;;;;;5063188;28;20041;-69
2022/03/17 07:14:46;;;;;;;22.95;13.00;;;9.50;72.10;;;;;;5055514;28;21297;-69
2022/03/17 07:17:13;;;;;;;21.17;12.02;;;9.50;72.00;;;;;;5050941;28;20044;-69
2022/03/17 07:19:41;;;;;;;21.33;11.50;;;9.50;72.00;;;;;;5073228;28;20063;-70
2022/03/17 07:22:08;;;;;;;24.05;13.02;;;9.60;71.80;;;;;;5060183;28;20051;-71
2022/03/17 07:24:35;;;;;;;23.85;11.77;;;9.60;71.70;;;;;;5075645;28;20119;-70
2022/03/17 07:27:02;;;;;;;19.52;11.45;;;9.60;71.70;;;;;;5074253;28;20496;-70
2022/03/17 07:29:31;;;;;;;22.50;12.40;;;9.70;71.60;;;;;;5067235;28;20071;-69
2022/03/17 07:31:58;;;;;;;26.02;12.75;;;9.60;71.60;;;;;;5069782;28;20056;-70
2022/03/17 07:34:25;;;;;;;23.77;12.10;;;9.60;71.60;;;;;;5067532;28;20118;-70
2022/03/17 07:36:52;;;;;;;22.60;13.00;;;9.60;71.60;;;;;;5068809;28;20163;-69
2022/03/17 07:39:20;;;;;;;24.02;12.55;;;9.60;71.80;;;;;;5061888;28;20068;-68
2022/03/17 07:41:47;;;;;;;22.85;12.77;;;9.70;71.70;;;;;;5066056;28;20093;-70
2022/03/17 07:44:14;;;;;;;21.98;11.18;;;9.70;71.60;;;;;;5062056;28;20146;-69
2022/03/17 07:46:55;;;;;;;20.35;11.00;;;9.70;71.50;;;;;;5066852;28;20051;-70
2022/03/17 07:49:32;;;;;;;26.15;11.63;;;9.70;71.40;;;;;;5056453;28;20115;-70
2022/03/17 07:51:59;;;;;;;24.10;12.10;;;9.70;71.40;;;;;;5058547;28;20123;-70
2022/03/17 07:54:27;;;;;;;24.08;13.68;;;9.70;71.30;;;;;;5065133;28;20123;-70
2022/03/17 07:56:54;;;;;;;20.92;12.98;;;9.70;71.40;;;;;;5064053;28;20047;-70
2022/03/17 07:59:21;;;;;;;24.15;11.75;;;9.70;71.30;;;;;;5060158;28;20053;-70
2022/03/17 08:01:48;;;;;;;19.88;11.52;;;9.80;71.30;;;;;;5057495;28;20085;-70
2022/03/17 08:04:17;;;;;;;21.75;11.30;;;9.80;71.10;;;;;;5064205;28;20045;-69
2022/03/17 08:06:43;;;;;;;21.50;12.02;;;9.80;71.10;;;;;;5064376;28;20036;-70
2022/03/17 08:09:10;;;;;;;20.65;10.65;;;9.80;70.90;;;;;;5060508;28;20040;-70
2022/03/17 08:11:38;;;;;;;19.88;11.68;;;9.80;70.80;;;;;;5060398;28;20405;-68
2022/03/17 08:14:05;;;;;;;19.05;11.10;;;9.90;70.90;;;;;;5062115;28;20133;-71
2022/03/17 08:16:32;;;;;;;20.55;11.52;;;9.90;71.00;;;;;;5061519;28;20493;-70
2022/03/17 08:18:59;;;;;;;25.45;11.93;;;9.90;70.80;;;;;;5061887;28;20123;-70
2022/03/17 08:21:27;;;;;;;24.48;11.98;;;9.90;71.00;;;;;;5062059;28;20492;-69
2022/03/17 08:23:55;;;;;;;19.67;11.15;;;9.90;71.00;;;;;;5057991;28;20890;-69
2022/03/17 08:26:22;;;;;;;22.05;11.73;;;9.90;70.90;;;;;;5058973;28;20117;-70
2022/03/17 08:28:49;;;;;;;20.48;11.55;;;10.00;70.90;;;;;;5064779;28;20056;-70
2022/03/17 08:31:17;;;;;;;22.98;12.48;;;10.00;70.90;;;;;;5063760;28;20044;-69
2022/03/17 08:33:45;;;;;;;22.35;11.38;;;10.00;70.90;;;;;;5060507;28;20040;-68
2022/03/17 08:36:12;;;;;;;22.17;11.30;;;10.00;70.80;;;;;;5064661;28;20040;-70
2022/03/17 08:38:40;;;;;;;22.08;11.27;;;10.10;70.60;;;;;;5064956;28;20040;-68
2022/03/17 08:41:07;;;;;;;23.33;11.77;;;10.10;70.70;;;;;;5062799;28;20058;-70
2022/03/17 08:43:35;;;;;;;23.30;11.98;;;10.10;70.80;;;;;;5062506;28;20072;-69
2022/03/17 08:51:31;;;;;;;22.00;12.55;;;10.10;70.40;;;;;;5067341;28;20128;-69
2022/03/17 08:53:59;;;;;;;21.90;11.82;;;10.20;70.40;;;;;;5076292;28;20135;-69
2022/03/17 08:56:28;;;;;;;22.67;11.98;;;10.20;70.40;;;;;;5068104;28;20044;-69
2022/03/17 08:58:55;;;;;;;21.08;11.60;;;10.20;70.40;;;;;;5064426;28;20165;-69
2022/03/17 09:01:22;;;;;;;18.58;10.60;;;10.20;70.30;;;;;;5065688;28;20370;-69
2022/03/17 09:03:49;;;;;;;18.60;10.73;;;10.30;70.20;;;;;;5066848;28;20161;-70
2022/03/17 09:06:16;;;;;;;19.23;11.18;;;10.30;70.20;;;;;;5062368;28;20044;-69
2022/03/17 09:08:43;;;;;;;20.20;10.82;;;10.40;70.20;;;;;;5063925;28;20098;-69
2022/03/17 09:11:13;;;;;;;22.25;12.15;;;10.40;70.10;;;;;;5062641;28;20059;-70
2022/03/17 09:13:40;;;;;;;22.10;10.83;;;10.40;70.00;;;;;;5071475;28;20035;-69
2022/03/17 09:16:07;;;;;;;22.27;11.20;;;10.50;69.90;;;;;;5072886;28;20143;-70
2022/03/17 09:18:35;;;;;;;20.67;11.82;;;10.50;69.60;;;;;;5079758;28;20131;-69
2022/03/17 09:21:03;;;;;;;18.58;11.15;;;10.50;69.60;;;;;;5081698;28;20075;-70
2022/03/17 09:23:30;;;;;;;22.10;11.27;;;10.60;69.70;;;;;;5080571;28;20070;-69
2022/03/17 09:25:57;;;;;;;26.38;12.75;;;10.60;69.70;;;;;;5077532;28;20040;-70
2022/03/17 09:28:27;;;;;;;22.73;11.93;;;10.70;69.50;;;;;;5074840;28;20070;-69
2022/03/17 09:30:55;;;;;;;20.45;10.98;;;10.70;69.40;;;;;;5063190;28;20162;-67
2022/03/17 09:33:25;;;;;;;17.95;10.80;;;10.70;69.60;;;;;;5072809;28;20144;-70
2022/03/17 09:35:52;;;;;;;21.90;10.70;;;10.80;69.60;;;;;;5069435;28;20036;-68
2022/03/17 09:38:19;;;;;;;18.02;11.32;;;10.90;69.60;;;;;;5073281;28;20123;-69
2022/03/17 09:40:47;;;;;;;18.45;10.75;;;10.90;69.40;;;;;;5077476;28;20127;-69
2022/03/17 09:43:21;;;;;;;21.63;11.55;;;11.00;69.30;;;;;;5076474;28;20045;-69
2022/03/17 09:45:53;;;;;;;22.60;12.18;;;11.00;69.10;;;;;;5040963;28;20420;-69
2022/03/17 09:48:22;;;;;;;22.33;12.13;;;11.10;69.20;;;;;;5051996;28;20053;-70
2022/03/17 09:50:55;;;;;;;20.25;11.88;;;11.10;68.90;;;;;;5050329;28;20077;-70
2022/03/17 09:53:22;;;;;;;21.48;11.07;;;11.20;68.90;;;;;;5055132;28;20033;-70
2022/03/17 09:55:50;;;;;;;21.17;11.27;;;11.20;68.90;;;;;;5060758;28;20470;-69
2022/03/17 09:58:17;;;;;;;23.25;13.23;;;11.30;68.90;;;;;;5047313;28;20057;-70
2022/03/17 10:00:52;;;;;;;20.38;11.63;;;11.30;68.60;;;;;;5043318;28;20615;-71
2022/03/17 10:03:22;;;;;;;23.02;12.07;;;11.40;68.80;;;;;;5050484;28;20045;-70
2022/03/17 10:05:50;;;;;;;20.65;12.32;;;11.50;68.60;;;;;;5057022;28;20132;-69
2022/03/17 10:08:20;;;;;;;22.25;12.35;;;11.60;68.50;;;;;;5058583;28;20076;-69
2022/03/17 10:10:48;;;;;;;24.20;12.55;;;11.60;68.40;;;;;;5058669;28;20045;-69
2022/03/17 10:13:17;;;;;;;27.23;13.52;;;11.70;68.40;;;;;;5057862;28;20053;-71
2022/03/17 10:15:46;;;;;;;26.70;14.57;;;11.70;68.40;;;;;;5058433;28;20485;-71
2022/03/17 10:18:23;;;;;;;22.30;13.00;;;11.80;68.00;;;;;;5061622;28;20064;-70
2022/03/17 10:21:06;;;;;;;26.92;13.48;;;11.80;68.20;;;;;;5056695;28;20098;-70
2022/03/17 10:23:35;;;;;;;26.55;13.98;;;11.80;67.80;;;;;;5057759;28;20053;-69
2022/03/17 10:26:02;;;;;;;27.23;13.27;;;11.80;67.90;;;;;;5053132;28;20040;-71
2022/03/17 10:28:30;;;;;;;24.27;13.30;;;11.80;67.20;;;;;;5052850;28;20052;-70
2022/03/17 10:31:05;;;;;;;24.05;11.93;;;11.80;67.20;;;;;;5056413;28;20395;-71
2022/03/17 10:33:34;;;;;;;23.48;12.85;;;11.80;67.20;;;;;;5059738;28;20073;-69
2022/03/17 10:36:21;;;;;;;19.85;10.95;;;11.90;66.80;;;;;;5059336;28;20052;-69
2022/03/17 10:38:49;;;;;;;20.65;11.70;;;11.90;67.00;;;;;;5056726;28;20036;-71
2022/03/17 10:41:17;;;;;;;21.08;12.02;;;12.00;66.60;;;;;;5058266;28;20084;-71
2022/03/17 10:43:44;;;;;;;25.52;12.48;;;12.00;66.30;;;;;;5055274;28;20521;-68
2022/03/17 10:46:15;;;;;;;20.98;10.98;;;11.90;66.60;;;;;;5068745;28;20098;-69
2022/03/17 10:48:57;;;;;;;23.25;12.60;;;11.90;66.70;;;;;;5070808;28;20059;-70
2022/03/17 10:51:32;;;;;;;22.08;12.23;;;11.90;66.60;;;;;;5073415;28;20044;-71
2022/03/17 10:54:04;;;;;;;20.90;11.73;;;11.90;66.60;;;;;;5067413;28;20047;-71
2022/03/17 10:56:32;;;;;;;18.15;10.63;;;11.90;66.70;;;;;;5072238;28;20123;-71
2022/03/17 10:58:59;;;;;;;20.33;11.10;;;11.80;66.80;;;;;;5071638;28;20036;-70
2022/03/17 11:01:36;;;;;;;21.15;11.50;;;11.80;67.00;;;;;;5072891;28;20036;-70
2022/03/17 11:04:05;;;;;;;22.45;12.05;;;11.70;67.20;;;;;;5073546;28;20044;-70
2022/03/17 11:06:32;;;;;;;19.35;11.23;;;11.70;66.70;;;;;;5076760;28;20067;-71
2022/03/17 11:09:01;;;;;;;21.02;11.82;;;11.70;66.90;;;;;;5070746;28;20067;-70
2022/03/17 11:11:29;;;;;;;20.55;12.02;;;11.70;66.90;;;;;;5072144;28;20083;-69
2022/03/17 11:13:57;;;;;;;19.90;11.73;;;11.60;66.80;;;;;;5071415;28;20049;-71
2022/03/17 11:16:33;;;;;;;19.92;12.32;;;11.60;67.00;;;;;;5074175;28;20116;-69
2022/03/17 11:19:01;;;;;;;21.80;12.35;;;11.60;67.30;;;;;;5067670;28;20128;-71
2022/03/17 11:21:31;;;;;;;24.60;12.40;;;11.60;67.60;;;;;;5062969;28;20050;-70
2022/03/17 11:24:04;;;;;;;23.13;12.80;;;11.50;67.70;;;;;;5066044;28;20098;-70
2022/03/17 11:26:37;;;;;;;24.65;12.95;;;11.50;68.00;;;;;;5073728;28;20056;-71
2022/03/17 11:29:06;;;;;;;23.98;11.73;;;11.50;68.50;;;;;;5075202;28;20090;-71
2022/03/17 11:31:53;;;;;;;26.92;13.85;;;11.50;68.70;;;;;;5069067;28;20050;-69
2022/03/17 11:34:41;;;;;;;21.13;11.48;;;11.40;68.90;;;;;;5069379;28;20132;-70
2022/03/17 11:37:27;;;;;;;21.08;12.50;;;11.40;69.10;;;;;;5064500;28;20049;-70
2022/03/17 11:39:56;;;;;;;21.80;11.27;;;11.40;69.30;;;;;;5068469;28;20049;-69
2022/03/17 11:42:31;;;;;;;19.17;11.73;;;11.40;69.40;;;;;;5063901;28;20029;-70
2022/03/17 11:45:41;;;;;;;20.25;11.93;;;11.40;69.80;;;;;;5061956;28;20049;-68
2022/03/17 11:48:11;;;;;;;19.02;11.02;;;11.40;70.20;;;;;;5065405;28;20127;-69
2022/03/17 11:50:45;;;;;;;22.65;12.43;;;11.40;70.80;;;;;;5063763;28;20043;-69
2022/03/17 11:53:37;;;;;;;24.00;12.40;;;11.40;71.00;;;;;;5070985;28;20075;-68
2022/03/17 11:56:05;;;;;;;20.27;11.57;;;11.40;71.40;;;;;;5068185;28;20044;-69
2022/03/17 11:58:39;;;;;;;21.52;11.68;;;11.40;71.80;;;;;;5073752;28;20055;-70
2022/03/17 12:01:09;;;;;;;22.58;11.40;;;11.40;72.40;;;;;;5067665;28;20478;-68
2022/03/17 12:03:39;;;;;;;18.50;11.32;;;11.40;72.60;;;;;;5075891;28;20040;-70
2022/03/17 12:06:13;;;;;;;19.58;11.25;;;11.40;72.90;;;;;;5070674;28;20114;-69
2022/03/17 12:08:42;;;;;;;18.52;9.93;;;11.40;73.10;;;;;;5075410;28;20558;-70
2022/03/17 12:11:11;;;;;;;21.45;12.65;;;11.40;73.00;;;;;;5074379;28;20055;-70
2022/03/17 12:13:38;;;;;;;20.88;12.23;;;11.40;73.20;;;;;;5075290;28;20052;-70
2022/03/17 12:16:06;;;;;;;23.95;12.85;;;11.40;73.20;;;;;;5075066;28;20497;-69
2022/03/17 12:19:01;;;;;;;22.88;11.38;;;11.40;72.40;;;;;;5074957;28;20135;-70
2022/03/17 12:22:05;;;;;;;23.23;12.25;;;11.40;72.20;;;;;;5075967;28;20251;-70
2022/03/17 12:24:39;;;;;;;23.35;12.75;;;11.50;72.10;;;;;;5070625;28;20041;-69
2022/03/17 12:27:10;;;;;;;23.33;12.52;;;11.50;71.80;;;;;;5065288;28;20474;-69
2022/03/17 12:29:38;;;;;;;23.00;13.68;;;11.40;71.50;;;;;;5068410;28;20043;-69
2022/03/17 12:32:10;;;;;;;20.90;12.07;;;11.40;71.30;;;;;;5070355;28;20048;-69
2022/03/17 12:34:38;;;;;;;22.15;11.73;;;11.40;71.10;;;;;;5071159;28;20052;-70
2022/03/17 12:37:06;;;;;;;23.73;12.90;;;11.30;71.10;;;;;;5069145;28;20071;-70
2022/03/17 12:39:35;;;;;;;25.20;14.30;;;11.30;71.40;;;;;;5071851;28;20044;-70
2022/03/17 12:42:11;;;;;;;25.50;12.88;;;11.30;71.60;;;;;;5068698;28;20048;-70
2022/03/17 12:44:57;;;;;;;22.48;13.32;;;11.20;71.80;;;;;;5067962;28;20131;-69
2022/03/17 12:47:26;;;;;;;25.00;12.32;;;11.20;72.20;;;;;;5071497;28;20071;-70
2022/03/17 12:49:55;;;;;;;22.20;12.32;;;11.20;72.30;;;;;;5069222;28;20079;-70
2022/03/17 12:52:25;;;;;;;21.70;12.75;;;11.20;72.40;;;;;;5061649;28;20048;-70
2022/03/17 12:54:54;;;;;;;21.63;11.75;;;11.20;72.70;;;;;;5071121;28;20530;-69
2022/03/17 12:57:22;;;;;;;23.87;13.50;;;11.20;73.20;;;;;;5066914;28;20704;-68
2022/03/17 12:59:49;;;;;;;23.33;13.20;;;11.20;73.60;;;;;;5071011;28;20488;-69
2022/03/17 13:02:18;;;;;;;28.38;13.30;;;11.20;73.60;;;;;;5067949;28;20094;-71
2022/03/17 13:04:46;;;;;;;22.08;12.52;;;11.10;74.00;;;;;;5070785;28;20045;-70
2022/03/17 13:07:14;;;;;;;24.08;13.23;;;11.10;74.90;;;;;;5069326;28;20097;-69